sensor_id;sensor_type;location;lat;lon;timestamp;P1;durP1;ratioP1;P2;durP2;ratioP2
27618;SDS011;15039;50.830;4.730;2022-08-19T00:00:17;11.05;;;9.65;;
27618;SDS011;15039;50.830;4.730;2022-08-19T00:02:44;10.95;;;9.93;;
27618;SDS011;15039;50.830;4.730;2022-08-19T00:05:11;10.00;;;9.00;;
27618;SDS011;15039;50.830;4.730;2022-08-19T00:07:38;10.93;;;9.85;;
27618;SDS011;15039;50.830;4.730;2022-08-19T00:10:05;10.82;;;9.82;;
27618;SDS011;15039;50.830;4.730;2022-08-19T00:12:31;11.65;;;10.50;;
27618;SDS011;15039;50.830;4.730;2022-08-19T00:14:57;12.48;;;11.18;;
27618;SDS011;15039;50.830;4.730;2022-08-19T00:17:23;14.18;;;11.60;;
27618;SDS011;15039;50.830;4.730;2022-08-19T00:19:49;12.77;;;11.52;;
27618;SDS011;15039;50.830;4.730;2022-08-19T00:22:14;12.25;;;11.02;;
27618;SDS011;15039;50.830;4.730;2022-08-19T00:24:42;11.95;;;10.75;;
27618;SDS011;15039;50.830;4.730;2022-08-19T00:27:09;12.27;;;11.00;;
27618;SDS011;15039;50.830;4.730;2022-08-19T00:29:34;13.88;;;12.48;;
27618;SDS011;15039;50.830;4.730;2022-08-19T00:32:00;15.93;;;13.95;;
27618;SDS011;15039;50.830;4.730;2022-08-19T00:34:25;15.93;;;14.32;;
27618;SDS011;15039;50.830;4.730;2022-08-19T00:36:54;15.35;;;13.82;;
27618;SDS011;15039;50.830;4.730;2022-08-19T00:39:21;16.13;;;14.43;;
27618;SDS011;15039;50.830;4.730;2022-08-19T00:41:48;16.02;;;14.20;;
27618;SDS011;15039;50.830;4.730;2022-08-19T00:46:41;16.73;;;14.48;;
27618;SDS011;15039;50.830;4.730;2022-08-19T00:49:13;16.83;;;14.52;;
27618;SDS011;15039;50.830;4.730;2022-08-19T00:51:42;18.67;;;15.20;;
27618;SDS011;15039;50.830;4.730;2022-08-19T00:54:12;17.50;;;15.00;;
27618;SDS011;15039;50.830;4.730;2022-08-19T00:56:38;16.58;;;14.88;;
27618;SDS011;15039;50.830;4.730;2022-08-19T00:59:05;17.27;;;15.57;;
27618;SDS011;15039;50.830;4.730;2022-08-19T01:01:37;18.17;;;16.30;;
27618;SDS011;15039;50.830;4.730;2022-08-19T01:04:05;19.73;;;17.05;;
27618;SDS011;15039;50.830;4.730;2022-08-19T01:06:31;17.17;;;15.48;;
27618;SDS011;15039;50.830;4.730;2022-08-19T01:08:58;19.15;;;16.70;;
27618;SDS011;15039;50.830;4.730;2022-08-19T01:11:25;19.60;;;16.50;;
27618;SDS011;15039;50.830;4.730;2022-08-19T01:13:53;21.20;;;18.25;;
27618;SDS011;15039;50.830;4.730;2022-08-19T01:16:20;21.60;;;18.52;;
27618;SDS011;15039;50.830;4.730;2022-08-19T01:23:57;32.50;;;20.75;;
27618;SDS011;15039;50.830;4.730;2022-08-19T01:26:23;23.33;;;20.52;;
27618;SDS011;15039;50.830;4.730;2022-08-19T01:28:51;26.08;;;20.65;;
27618;SDS011;15039;50.830;4.730;2022-08-19T01:31:21;26.45;;;20.02;;
27618;SDS011;15039;50.830;4.730;2022-08-19T01:33:49;25.02;;;21.00;;
27618;SDS011;15039;50.830;4.730;2022-08-19T01:36:23;27.13;;;20.92;;
27618;SDS011;15039;50.830;4.730;2022-08-19T01:38:53;25.60;;;21.05;;
27618;SDS011;15039;50.830;4.730;2022-08-19T01:41:19;26.73;;;22.48;;
27618;SDS011;15039;50.830;4.730;2022-08-19T01:43:45;26.10;;;21.80;;
27618;SDS011;15039;50.830;4.730;2022-08-19T01:46:11;27.50;;;21.90;;
27618;SDS011;15039;50.830;4.730;2022-08-19T01:48:38;28.77;;;22.65;;
27618;SDS011;15039;50.830;4.730;2022-08-19T01:51:06;30.02;;;23.38;;
27618;SDS011;15039;50.830;4.730;2022-08-19T01:53:33;28.05;;;23.02;;
27618;SDS011;15039;50.830;4.730;2022-08-19T01:56:00;32.40;;;24.08;;
27618;SDS011;15039;50.830;4.730;2022-08-19T01:58:27;30.73;;;23.48;;
27618;SDS011;15039;50.830;4.730;2022-08-19T02:01:04;29.17;;;23.30;;
27618;SDS011;15039;50.830;4.730;2022-08-19T02:03:30;31.02;;;23.58;;
27618;SDS011;15039;50.830;4.730;2022-08-19T02:05:57;27.10;;;22.42;;
27618;SDS011;15039;50.830;4.730;2022-08-19T02:08:24;26.65;;;22.77;;
27618;SDS011;15039;50.830;4.730;2022-08-19T02:10:51;30.73;;;23.55;;
27618;SDS011;15039;50.830;4.730;2022-08-19T02:13:17;26.88;;;22.50;;
27618;SDS011;15039;50.830;4.730;2022-08-19T02:15:42;31.15;;;23.48;;
27618;SDS011;15039;50.830;4.730;2022-08-19T02:18:08;26.85;;;22.50;;
27618;SDS011;15039;50.830;4.730;2022-08-19T02:20:35;27.10;;;21.88;;
27618;SDS011;15039;50.830;4.730;2022-08-19T02:23:02;25.92;;;21.20;;
27618;SDS011;15039;50.830;4.730;2022-08-19T02:25:28;31.30;;;22.88;;
27618;SDS011;15039;50.830;4.730;2022-08-19T02:27:53;31.88;;;23.15;;
27618;SDS011;15039;50.830;4.730;2022-08-19T02:30:19;30.55;;;22.85;;
27618;SDS011;15039;50.830;4.730;2022-08-19T02:32:45;29.77;;;22.92;;
27618;SDS011;15039;50.830;4.730;2022-08-19T02:35:12;32.22;;;22.58;;
27618;SDS011;15039;50.830;4.730;2022-08-19T02:37:39;31.73;;;24.02;;
27618;SDS011;15039;50.830;4.730;2022-08-19T02:40:24;35.67;;;26.13;;
27618;SDS011;15039;50.830;4.730;2022-08-19T02:42:49;38.42;;;26.23;;
27618;SDS011;15039;50.830;4.730;2022-08-19T02:45:15;37.92;;;27.15;;
27618;SDS011;15039;50.830;4.730;2022-08-19T02:47:41;40.92;;;27.88;;
27618;SDS011;15039;50.830;4.730;2022-08-19T02:50:07;41.70;;;28.10;;
27618;SDS011;15039;50.830;4.730;2022-08-19T02:52:33;39.22;;;26.75;;
27618;SDS011;15039;50.830;4.730;2022-08-19T02:54:59;41.45;;;28.05;;
27618;SDS011;15039;50.830;4.730;2022-08-19T02:57:26;37.72;;;28.30;;
27618;SDS011;15039;50.830;4.730;2022-08-19T02:59:51;42.80;;;29.33;;
27618;SDS011;15039;50.830;4.730;2022-08-19T03:02:17;41.03;;;29.25;;
27618;SDS011;15039;50.830;4.730;2022-08-19T03:04:43;40.08;;;27.73;;
27618;SDS011;15039;50.830;4.730;2022-08-19T03:07:09;40.15;;;28.98;;
27618;SDS011;15039;50.830;4.730;2022-08-19T03:09:38;40.47;;;27.95;;
27618;SDS011;15039;50.830;4.730;2022-08-19T03:12:04;37.63;;;27.52;;
27618;SDS011;15039;50.830;4.730;2022-08-19T03:14:31;41.47;;;26.35;;
27618;SDS011;15039;50.830;4.730;2022-08-19T03:16:57;37.08;;;26.10;;
27618;SDS011;15039;50.830;4.730;2022-08-19T03:19:23;45.45;;;25.83;;
27618;SDS011;15039;50.830;4.730;2022-08-19T03:21:49;30.90;;;23.98;;
27618;SDS011;15039;50.830;4.730;2022-08-19T03:24:16;36.80;;;25.67;;
27618;SDS011;15039;50.830;4.730;2022-08-19T03:26:44;31.52;;;23.75;;
27618;SDS011;15039;50.830;4.730;2022-08-19T03:29:13;33.63;;;24.23;;
27618;SDS011;15039;50.830;4.730;2022-08-19T03:31:40;35.22;;;24.13;;
27618;SDS011;15039;50.830;4.730;2022-08-19T03:34:08;35.45;;;24.92;;
27618;SDS011;15039;50.830;4.730;2022-08-19T03:36:36;30.42;;;24.08;;
27618;SDS011;15039;50.830;4.730;2022-08-19T03:39:02;29.90;;;22.63;;
27618;SDS011;15039;50.830;4.730;2022-08-19T03:41:30;31.88;;;22.83;;
27618;SDS011;15039;50.830;4.730;2022-08-19T03:43:59;33.50;;;23.98;;
27618;SDS011;15039;50.830;4.730;2022-08-19T03:46:25;28.88;;;23.00;;
27618;SDS011;15039;50.830;4.730;2022-08-19T03:48:53;30.70;;;23.93;;
27618;SDS011;15039;50.830;4.730;2022-08-19T03:51:22;32.03;;;22.83;;
27618;SDS011;15039;50.830;4.730;2022-08-19T03:53:50;29.98;;;23.50;;
27618;SDS011;15039;50.830;4.730;2022-08-19T03:56:17;29.80;;;22.23;;
27618;SDS011;15039;50.830;4.730;2022-08-19T03:58:43;30.55;;;21.88;;
27618;SDS011;15039;50.830;4.730;2022-08-19T04:01:11;28.35;;;21.55;;
27618;SDS011;15039;50.830;4.730;2022-08-19T04:06:12;28.80;;;21.55;;
27618;SDS011;15039;50.830;4.730;2022-08-19T04:08:42;29.45;;;21.92;;
27618;SDS011;15039;50.830;4.730;2022-08-19T04:11:10;29.40;;;22.02;;
27618;SDS011;15039;50.830;4.730;2022-08-19T04:13:38;27.02;;;22.17;;
27618;SDS011;15039;50.830;4.730;2022-08-19T04:16:04;31.27;;;22.08;;
27618;SDS011;15039;50.830;4.730;2022-08-19T04:18:31;28.25;;;21.85;;
27618;SDS011;15039;50.830;4.730;2022-08-19T04:20:59;31.05;;;21.63;;
27618;SDS011;15039;50.830;4.730;2022-08-19T04:23:26;26.48;;;20.10;;
27618;SDS011;15039;50.830;4.730;2022-08-19T04:25:53;28.42;;;22.23;;
27618;SDS011;15039;50.830;4.730;2022-08-19T04:28:19;33.58;;;22.98;;
27618;SDS011;15039;50.830;4.730;2022-08-19T04:30:46;29.40;;;21.17;;
27618;SDS011;15039;50.830;4.730;2022-08-19T04:33:13;28.00;;;21.80;;
27618;SDS011;15039;50.830;4.730;2022-08-19T04:35:41;28.90;;;22.55;;
27618;SDS011;15039;50.830;4.730;2022-08-19T04:38:09;31.40;;;22.92;;
27618;SDS011;15039;50.830;4.730;2022-08-19T04:40:40;30.02;;;22.30;;
27618;SDS011;15039;50.830;4.730;2022-08-19T04:43:25;30.58;;;21.48;;
27618;SDS011;15039;50.830;4.730;2022-08-19T04:45:51;29.80;;;21.38;;
27618;SDS011;15039;50.830;4.730;2022-08-19T04:48:18;29.88;;;21.58;;
27618;SDS011;15039;50.830;4.730;2022-08-19T04:50:54;33.25;;;23.05;;
27618;SDS011;15039;50.830;4.730;2022-08-19T04:53:27;31.45;;;22.65;;
27618;SDS011;15039;50.830;4.730;2022-08-19T04:55:58;30.45;;;21.15;;
27618;SDS011;15039;50.830;4.730;2022-08-19T04:58:26;28.20;;;20.55;;
27618;SDS011;15039;50.830;4.730;2022-08-19T05:00:52;29.40;;;21.58;;
27618;SDS011;15039;50.830;4.730;2022-08-19T05:03:18;26.30;;;20.10;;
27618;SDS011;15039;50.830;4.730;2022-08-19T05:05:45;30.13;;;20.30;;
27618;SDS011;15039;50.830;4.730;2022-08-19T05:08:14;32.90;;;22.45;;
27618;SDS011;15039;50.830;4.730;2022-08-19T05:10:44;32.40;;;22.02;;
27618;SDS011;15039;50.830;4.730;2022-08-19T05:13:12;31.55;;;21.65;;
27618;SDS011;15039;50.830;4.730;2022-08-19T05:15:38;31.85;;;21.25;;
27618;SDS011;15039;50.830;4.730;2022-08-19T05:18:04;26.25;;;20.40;;
27618;SDS011;15039;50.830;4.730;2022-08-19T05:20:48;31.17;;;21.25;;
27618;SDS011;15039;50.830;4.730;2022-08-19T05:23:32;29.30;;;21.63;;
27618;SDS011;15039;50.830;4.730;2022-08-19T05:25:58;29.67;;;20.95;;
27618;SDS011;15039;50.830;4.730;2022-08-19T05:28:23;29.85;;;21.58;;
27618;SDS011;15039;50.830;4.730;2022-08-19T05:30:49;34.55;;;22.67;;
27618;SDS011;15039;50.830;4.730;2022-08-19T05:33:16;30.27;;;20.52;;
27618;SDS011;15039;50.830;4.730;2022-08-19T05:35:43;31.15;;;21.63;;
27618;SDS011;15039;50.830;4.730;2022-08-19T05:38:09;32.88;;;21.92;;
27618;SDS011;15039;50.830;4.730;2022-08-19T05:40:36;32.90;;;22.05;;
27618;SDS011;15039;50.830;4.730;2022-08-19T05:43:04;29.30;;;21.25;;
27618;SDS011;15039;50.830;4.730;2022-08-19T05:45:30;29.13;;;20.70;;
27618;SDS011;15039;50.830;4.730;2022-08-19T05:47:56;30.58;;;19.33;;
27618;SDS011;15039;50.830;4.730;2022-08-19T05:50:23;28.67;;;19.88;;
27618;SDS011;15039;50.830;4.730;2022-08-19T05:52:51;27.85;;;19.17;;
27618;SDS011;15039;50.830;4.730;2022-08-19T05:55:17;27.52;;;18.25;;
27618;SDS011;15039;50.830;4.730;2022-08-19T05:57:45;26.60;;;19.45;;
27618;SDS011;15039;50.830;4.730;2022-08-19T06:00:11;27.95;;;18.48;;
27618;SDS011;15039;50.830;4.730;2022-08-19T06:02:38;33.25;;;19.08;;
27618;SDS011;15039;50.830;4.730;2022-08-19T06:05:04;28.15;;;18.20;;
27618;SDS011;15039;50.830;4.730;2022-08-19T06:07:35;24.02;;;17.35;;
27618;SDS011;15039;50.830;4.730;2022-08-19T06:10:02;24.15;;;17.75;;
27618;SDS011;15039;50.830;4.730;2022-08-19T06:12:30;23.17;;;18.25;;
27618;SDS011;15039;50.830;4.730;2022-08-19T06:14:59;20.02;;;16.92;;
27618;SDS011;15039;50.830;4.730;2022-08-19T06:17:26;21.80;;;16.50;;
27618;SDS011;15039;50.830;4.730;2022-08-19T06:19:54;23.00;;;17.10;;
27618;SDS011;15039;50.830;4.730;2022-08-19T06:22:20;22.83;;;16.88;;
27618;SDS011;15039;50.830;4.730;2022-08-19T06:24:46;20.98;;;16.33;;
27618;SDS011;15039;50.830;4.730;2022-08-19T06:27:12;22.70;;;17.92;;
27618;SDS011;15039;50.830;4.730;2022-08-19T06:29:37;21.58;;;17.35;;
27618;SDS011;15039;50.830;4.730;2022-08-19T06:32:03;24.58;;;17.08;;
27618;SDS011;15039;50.830;4.730;2022-08-19T06:34:30;22.67;;;17.30;;
27618;SDS011;15039;50.830;4.730;2022-08-19T06:36:59;19.42;;;15.73;;
27618;SDS011;15039;50.830;4.730;2022-08-19T06:39:27;17.25;;;14.98;;
27618;SDS011;15039;50.830;4.730;2022-08-19T06:41:56;22.95;;;14.82;;
27618;SDS011;15039;50.830;4.730;2022-08-19T06:44:25;17.63;;;13.85;;
27618;SDS011;15039;50.830;4.730;2022-08-19T06:46:55;17.85;;;13.60;;
27618;SDS011;15039;50.830;4.730;2022-08-19T06:49:22;16.00;;;11.82;;
27618;SDS011;15039;50.830;4.730;2022-08-19T06:51:48;13.15;;;10.90;;
27618;SDS011;15039;50.830;4.730;2022-08-19T06:54:15;14.10;;;10.82;;
27618;SDS011;15039;50.830;4.730;2022-08-19T06:56:42;16.08;;;9.23;;
27618;SDS011;15039;50.830;4.730;2022-08-19T06:59:14;12.45;;;9.65;;
27618;SDS011;15039;50.830;4.730;2022-08-19T07:01:47;10.43;;;8.68;;
27618;SDS011;15039;50.830;4.730;2022-08-19T07:04:18;13.52;;;8.55;;
27618;SDS011;15039;50.830;4.730;2022-08-19T07:06:47;15.73;;;8.48;;
27618;SDS011;15039;50.830;4.730;2022-08-19T07:09:14;10.90;;;7.93;;
27618;SDS011;15039;50.830;4.730;2022-08-19T07:11:45;11.40;;;8.00;;
27618;SDS011;15039;50.830;4.730;2022-08-19T07:14:12;10.02;;;7.43;;
27618;SDS011;15039;50.830;4.730;2022-08-19T07:16:42;8.93;;;7.43;;
27618;SDS011;15039;50.830;4.730;2022-08-19T07:19:10;10.05;;;7.15;;
27618;SDS011;15039;50.830;4.730;2022-08-19T07:21:36;8.90;;;6.97;;
27618;SDS011;15039;50.830;4.730;2022-08-19T07:24:02;10.95;;;7.30;;
27618;SDS011;15039;50.830;4.730;2022-08-19T07:26:30;9.20;;;6.15;;
27618;SDS011;15039;50.830;4.730;2022-08-19T07:29:03;7.82;;;6.10;;
27618;SDS011;15039;50.830;4.730;2022-08-19T07:31:29;8.25;;;5.78;;
27618;SDS011;15039;50.830;4.730;2022-08-19T07:33:55;6.18;;;5.40;;
27618;SDS011;15039;50.830;4.730;2022-08-19T07:36:23;9.77;;;5.70;;
27618;SDS011;15039;50.830;4.730;2022-08-19T07:38:50;8.90;;;5.50;;
27618;SDS011;15039;50.830;4.730;2022-08-19T07:41:23;7.30;;;5.10;;
27618;SDS011;15039;50.830;4.730;2022-08-19T07:43:51;9.68;;;5.47;;
27618;SDS011;15039;50.830;4.730;2022-08-19T07:46:18;9.70;;;5.05;;
27618;SDS011;15039;50.830;4.730;2022-08-19T07:48:46;7.75;;;4.70;;
27618;SDS011;15039;50.830;4.730;2022-08-19T07:51:15;5.82;;;4.05;;
27618;SDS011;15039;50.830;4.730;2022-08-19T07:53:43;6.97;;;4.57;;
27618;SDS011;15039;50.830;4.730;2022-08-19T07:56:10;5.93;;;4.40;;
27618;SDS011;15039;50.830;4.730;2022-08-19T07:58:38;6.10;;;4.20;;
27618;SDS011;15039;50.830;4.730;2022-08-19T08:01:06;6.65;;;4.47;;
27618;SDS011;15039;50.830;4.730;2022-08-19T08:03:35;9.52;;;4.03;;
27618;SDS011;15039;50.830;4.730;2022-08-19T08:06:20;4.50;;;3.50;;
27618;SDS011;15039;50.830;4.730;2022-08-19T08:09:05;6.32;;;4.13;;
27618;SDS011;15039;50.830;4.730;2022-08-19T08:11:45;5.63;;;3.10;;
27618;SDS011;15039;50.830;4.730;2022-08-19T08:14:18;4.47;;;2.90;;
27618;SDS011;15039;50.830;4.730;2022-08-19T08:16:49;3.45;;;2.88;;
27618;SDS011;15039;50.830;4.730;2022-08-19T08:19:17;5.00;;;2.40;;
27618;SDS011;15039;50.830;4.730;2022-08-19T08:21:45;3.90;;;2.00;;
27618;SDS011;15039;50.830;4.730;2022-08-19T08:24:11;4.63;;;2.50;;
27618;SDS011;15039;50.830;4.730;2022-08-19T08:26:37;3.53;;;2.60;;
27618;SDS011;15039;50.830;4.730;2022-08-19T08:29:04;4.85;;;2.70;;
27618;SDS011;15039;50.830;4.730;2022-08-19T08:31:32;4.60;;;2.80;;
27618;SDS011;15039;50.830;4.730;2022-08-19T08:33:59;3.42;;;2.72;;
27618;SDS011;15039;50.830;4.730;2022-08-19T08:36:24;4.05;;;2.80;;
27618;SDS011;15039;50.830;4.730;2022-08-19T08:38:50;5.72;;;2.65;;
27618;SDS011;15039;50.830;4.730;2022-08-19T08:44:41;4.80;;;2.88;;
27618;SDS011;15039;50.830;4.730;2022-08-19T08:47:15;4.10;;;2.60;;
27618;SDS011;15039;50.830;4.730;2022-08-19T08:49:45;3.00;;;2.45;;
27618;SDS011;15039;50.830;4.730;2022-08-19T08:54:48;6.80;;;3.00;;
27618;SDS011;15039;50.830;4.730;2022-08-19T08:57:37;5.00;;;3.15;;
27618;SDS011;15039;50.830;4.730;2022-08-19T09:00:18;3.75;;;2.67;;
27618;SDS011;15039;50.830;4.730;2022-08-19T09:02:46;4.43;;;3.55;;
27618;SDS011;15039;50.830;4.730;2022-08-19T09:05:12;5.20;;;3.38;;
27618;SDS011;15039;50.830;4.730;2022-08-19T09:12:53;5.35;;;3.03;;
27618;SDS011;15039;50.830;4.730;2022-08-19T09:15:42;4.85;;;3.22;;
27618;SDS011;15039;50.830;4.730;2022-08-19T09:18:12;4.35;;;2.63;;
27618;SDS011;15039;50.830;4.730;2022-08-19T09:20:38;2.40;;;2.20;;
27618;SDS011;15039;50.830;4.730;2022-08-19T09:23:04;4.43;;;2.40;;
27618;SDS011;15039;50.830;4.730;2022-08-19T09:25:30;4.15;;;2.00;;
27618;SDS011;15039;50.830;4.730;2022-08-19T09:27:56;4.15;;;1.90;;
27618;SDS011;15039;50.830;4.730;2022-08-19T09:30:24;4.05;;;2.60;;
27618;SDS011;15039;50.830;4.730;2022-08-19T09:32:51;2.90;;;2.08;;
27618;SDS011;15039;50.830;4.730;2022-08-19T09:35:18;2.50;;;2.30;;
27618;SDS011;15039;50.830;4.730;2022-08-19T09:37:48;5.60;;;2.60;;
27618;SDS011;15039;50.830;4.730;2022-08-19T09:40:15;5.65;;;2.42;;
27618;SDS011;15039;50.830;4.730;2022-08-19T09:42:42;2.85;;;2.20;;
27618;SDS011;15039;50.830;4.730;2022-08-19T09:45:12;5.70;;;2.00;;
27618;SDS011;15039;50.830;4.730;2022-08-19T09:47:38;3.83;;;2.25;;
27618;SDS011;15039;50.830;4.730;2022-08-19T09:50:05;3.45;;;2.10;;
27618;SDS011;15039;50.830;4.730;2022-08-19T09:52:31;4.70;;;2.20;;
27618;SDS011;15039;50.830;4.730;2022-08-19T09:54:57;3.50;;;2.42;;
27618;SDS011;15039;50.830;4.730;2022-08-19T09:57:23;5.10;;;2.05;;
27618;SDS011;15039;50.830;4.730;2022-08-19T09:59:48;2.72;;;1.83;;
27618;SDS011;15039;50.830;4.730;2022-08-19T10:02:14;4.15;;;1.83;;
27618;SDS011;15039;50.830;4.730;2022-08-19T10:04:40;4.47;;;2.15;;
27618;SDS011;15039;50.830;4.730;2022-08-19T10:07:24;3.58;;;1.98;;
27618;SDS011;15039;50.830;4.730;2022-08-19T10:09:50;3.05;;;1.90;;
27618;SDS011;15039;50.830;4.730;2022-08-19T10:12:15;3.08;;;1.95;;
27618;SDS011;15039;50.830;4.730;2022-08-19T10:14:41;5.57;;;1.85;;
27618;SDS011;15039;50.830;4.730;2022-08-19T10:17:07;2.80;;;2.17;;
27618;SDS011;15039;50.830;4.730;2022-08-19T10:19:33;2.22;;;1.90;;
27618;SDS011;15039;50.830;4.730;2022-08-19T10:22:04;3.35;;;1.83;;
27618;SDS011;15039;50.830;4.730;2022-08-19T10:24:31;2.28;;;1.60;;
27618;SDS011;15039;50.830;4.730;2022-08-19T10:26:58;2.65;;;2.03;;
27618;SDS011;15039;50.830;4.730;2022-08-19T10:29:28;2.85;;;2.10;;
27618;SDS011;15039;50.830;4.730;2022-08-19T10:31:54;2.92;;;1.90;;
27618;SDS011;15039;50.830;4.730;2022-08-19T10:34:20;2.25;;;2.00;;
27618;SDS011;15039;50.830;4.730;2022-08-19T10:36:46;2.67;;;1.80;;
27618;SDS011;15039;50.830;4.730;2022-08-19T10:39:12;2.45;;;2.20;;
27618;SDS011;15039;50.830;4.730;2022-08-19T10:41:38;2.47;;;2.00;;
27618;SDS011;15039;50.830;4.730;2022-08-19T10:44:06;2.83;;;2.03;;
27618;SDS011;15039;50.830;4.730;2022-08-19T10:46:35;4.20;;;2.17;;
27618;SDS011;15039;50.830;4.730;2022-08-19T10:49:04;2.72;;;2.03;;
27618;SDS011;15039;50.830;4.730;2022-08-19T10:51:31;2.30;;;2.10;;
27618;SDS011;15039;50.830;4.730;2022-08-19T10:54:16;2.50;;;2.13;;
27618;SDS011;15039;50.830;4.730;2022-08-19T10:56:42;3.05;;;1.90;;
27618;SDS011;15039;50.830;4.730;2022-08-19T10:59:21;4.20;;;2.20;;
27618;SDS011;15039;50.830;4.730;2022-08-19T11:01:49;2.30;;;2.10;;
27618;SDS011;15039;50.830;4.730;2022-08-19T11:04:16;4.80;;;2.20;;
27618;SDS011;15039;50.830;4.730;2022-08-19T11:06:43;3.85;;;2.25;;
27618;SDS011;15039;50.830;4.730;2022-08-19T11:09:12;2.92;;;2.20;;
27618;SDS011;15039;50.830;4.730;2022-08-19T11:11:40;1.98;;;1.77;;
27618;SDS011;15039;50.830;4.730;2022-08-19T11:14:07;2.17;;;1.85;;
27618;SDS011;15039;50.830;4.730;2022-08-19T11:16:34;2.70;;;1.60;;
27618;SDS011;15039;50.830;4.730;2022-08-19T11:19:03;3.60;;;1.90;;
27618;SDS011;15039;50.830;4.730;2022-08-19T11:21:33;10.60;;;2.80;;
27618;SDS011;15039;50.830;4.730;2022-08-19T11:24:01;2.90;;;1.85;;
27618;SDS011;15039;50.830;4.730;2022-08-19T11:26:31;2.40;;;1.75;;
27618;SDS011;15039;50.830;4.730;2022-08-19T11:28:58;3.58;;;1.92;;
27618;SDS011;15039;50.830;4.730;2022-08-19T11:31:31;6.07;;;1.85;;
27618;SDS011;15039;50.830;4.730;2022-08-19T11:33:59;2.85;;;1.90;;
27618;SDS011;15039;50.830;4.730;2022-08-19T11:36:26;3.92;;;2.22;;
27618;SDS011;15039;50.830;4.730;2022-08-19T11:38:52;2.60;;;2.33;;
27618;SDS011;15039;50.830;4.730;2022-08-19T11:41:20;3.03;;;1.95;;
27618;SDS011;15039;50.830;4.730;2022-08-19T11:43:48;2.22;;;2.00;;
27618;SDS011;15039;50.830;4.730;2022-08-19T11:46:14;1.80;;;1.70;;
27618;SDS011;15039;50.830;4.730;2022-08-19T11:48:41;2.22;;;2.03;;
27618;SDS011;15039;50.830;4.730;2022-08-19T11:51:08;2.63;;;2.30;;
27618;SDS011;15039;50.830;4.730;2022-08-19T11:53:37;2.30;;;2.10;;
27618;SDS011;15039;50.830;4.730;2022-08-19T11:56:04;3.88;;;2.13;;
27618;SDS011;15039;50.830;4.730;2022-08-19T11:58:31;2.85;;;2.42;;
27618;SDS011;15039;50.830;4.730;2022-08-19T12:00:57;3.20;;;2.90;;
27618;SDS011;15039;50.830;4.730;2022-08-19T12:03:23;6.18;;;2.83;;
27618;SDS011;15039;50.830;4.730;2022-08-19T12:05:49;5.03;;;3.25;;
27618;SDS011;15039;50.830;4.730;2022-08-19T12:08:15;2.90;;;2.70;;
27618;SDS011;15039;50.830;4.730;2022-08-19T12:10:41;2.80;;;2.60;;
27618;SDS011;15039;50.830;4.730;2022-08-19T12:13:07;3.75;;;3.38;;
27618;SDS011;15039;50.830;4.730;2022-08-19T12:15:38;3.75;;;3.40;;
27618;SDS011;15039;50.830;4.730;2022-08-19T12:18:09;3.90;;;3.42;;
27618;SDS011;15039;50.830;4.730;2022-08-19T12:20:36;3.95;;;3.50;;
27618;SDS011;15039;50.830;4.730;2022-08-19T12:23:03;3.97;;;3.65;;
27618;SDS011;15039;50.830;4.730;2022-08-19T12:25:30;5.00;;;3.55;;
27618;SDS011;15039;50.830;4.730;2022-08-19T12:27:56;3.92;;;3.58;;
27618;SDS011;15039;50.830;4.730;2022-08-19T12:30:22;5.28;;;4.10;;
27618;SDS011;15039;50.830;4.730;2022-08-19T12:32:49;5.70;;;4.03;;
27618;SDS011;15039;50.830;4.730;2022-08-19T12:35:16;3.88;;;3.58;;
27618;SDS011;15039;50.830;4.730;2022-08-19T12:37:45;3.92;;;3.50;;
27618;SDS011;15039;50.830;4.730;2022-08-19T12:40:12;3.85;;;3.20;;
27618;SDS011;15039;50.830;4.730;2022-08-19T12:42:39;3.58;;;3.28;;
27618;SDS011;15039;50.830;4.730;2022-08-19T12:45:07;3.30;;;3.00;;
27618;SDS011;15039;50.830;4.730;2022-08-19T12:47:35;3.45;;;2.55;;
27618;SDS011;15039;50.830;4.730;2022-08-19T12:50:00;4.50;;;3.00;;
27618;SDS011;15039;50.830;4.730;2022-08-19T12:52:26;3.00;;;2.80;;
27618;SDS011;15039;50.830;4.730;2022-08-19T12:54:53;4.43;;;3.22;;
27618;SDS011;15039;50.830;4.730;2022-08-19T12:57:21;2.40;;;2.20;;
27618;SDS011;15039;50.830;4.730;2022-08-19T12:59:51;2.92;;;2.67;;
27618;SDS011;15039;50.830;4.730;2022-08-19T13:02:18;5.65;;;2.42;;
27618;SDS011;15039;50.830;4.730;2022-08-19T13:04:45;2.63;;;2.20;;
27618;SDS011;15039;50.830;4.730;2022-08-19T13:07:10;2.20;;;2.00;;
27618;SDS011;15039;50.830;4.730;2022-08-19T13:09:36;3.50;;;2.20;;
27618;SDS011;15039;50.830;4.730;2022-08-19T13:12:02;3.85;;;2.13;;
27618;SDS011;15039;50.830;4.730;2022-08-19T13:14:32;2.15;;;2.00;;
27618;SDS011;15039;50.830;4.730;2022-08-19T13:16:59;2.20;;;2.00;;
27618;SDS011;15039;50.830;4.730;2022-08-19T13:19:25;2.38;;;1.70;;
27618;SDS011;15039;50.830;4.730;2022-08-19T13:21:51;2.22;;;2.00;;
27618;SDS011;15039;50.830;4.730;2022-08-19T13:24:20;3.80;;;2.35;;
27618;SDS011;15039;50.830;4.730;2022-08-19T13:26:46;2.13;;;1.75;;
27618;SDS011;15039;50.830;4.730;2022-08-19T13:29:12;1.85;;;1.73;;
27618;SDS011;15039;50.830;4.730;2022-08-19T13:31:57;2.97;;;1.77;;
27618;SDS011;15039;50.830;4.730;2022-08-19T13:34:42;1.83;;;1.45;;
27618;SDS011;15039;50.830;4.730;2022-08-19T13:37:07;2.97;;;1.67;;
27618;SDS011;15039;50.830;4.730;2022-08-19T13:39:34;2.03;;;1.73;;
27618;SDS011;15039;50.830;4.730;2022-08-19T13:42:01;1.70;;;1.60;;
27618;SDS011;15039;50.830;4.730;2022-08-19T13:44:28;3.58;;;1.30;;
27618;SDS011;15039;50.830;4.730;2022-08-19T13:49:31;4.95;;;2.50;;
27618;SDS011;15039;50.830;4.730;2022-08-19T13:52:01;1.55;;;1.30;;
27618;SDS011;15039;50.830;4.730;2022-08-19T13:54:27;3.08;;;1.90;;
27618;SDS011;15039;50.830;4.730;2022-08-19T13:56:53;1.20;;;1.13;;
27618;SDS011;15039;50.830;4.730;2022-08-19T13:59:19;1.38;;;0.90;;
27618;SDS011;15039;50.830;4.730;2022-08-19T14:01:44;1.20;;;1.08;;
27618;SDS011;15039;50.830;4.730;2022-08-19T14:04:10;1.45;;;0.93;;
27618;SDS011;15039;50.830;4.730;2022-08-19T14:06:35;2.33;;;1.10;;
27618;SDS011;15039;50.830;4.730;2022-08-19T14:09:02;1.50;;;1.15;;
27618;SDS011;15039;50.830;4.730;2022-08-19T14:11:28;2.95;;;1.10;;
27618;SDS011;15039;50.830;4.730;2022-08-19T14:13:54;3.50;;;0.95;;
27618;SDS011;15039;50.830;4.730;2022-08-19T14:16:20;1.05;;;0.90;;
27618;SDS011;15039;50.830;4.730;2022-08-19T14:18:46;1.45;;;0.98;;
27618;SDS011;15039;50.830;4.730;2022-08-19T14:21:16;1.38;;;1.27;;
27618;SDS011;15039;50.830;4.730;2022-08-19T14:23:45;1.30;;;0.82;;
27618;SDS011;15039;50.830;4.730;2022-08-19T14:26:13;5.95;;;1.15;;
27618;SDS011;15039;50.830;4.730;2022-08-19T14:28:41;2.42;;;1.20;;
27618;SDS011;15039;50.830;4.730;2022-08-19T14:31:09;1.20;;;1.10;;
27618;SDS011;15039;50.830;4.730;2022-08-19T14:33:41;1.92;;;1.15;;
27618;SDS011;15039;50.830;4.730;2022-08-19T14:36:07;0.70;;;0.70;;
27618;SDS011;15039;50.830;4.730;2022-08-19T14:38:33;1.50;;;1.00;;
27618;SDS011;15039;50.830;4.730;2022-08-19T14:41:14;1.00;;;0.60;;
27618;SDS011;15039;50.830;4.730;2022-08-19T14:43:47;1.23;;;0.80;;
27618;SDS011;15039;50.830;4.730;2022-08-19T14:46:15;2.47;;;0.98;;
27618;SDS011;15039;50.830;4.730;2022-08-19T14:48:44;1.35;;;0.90;;
27618;SDS011;15039;50.830;4.730;2022-08-19T14:51:10;1.90;;;1.00;;
27618;SDS011;15039;50.830;4.730;2022-08-19T14:53:36;2.03;;;0.70;;
27618;SDS011;15039;50.830;4.730;2022-08-19T14:56:06;2.13;;;0.93;;
27618;SDS011;15039;50.830;4.730;2022-08-19T14:58:34;6.43;;;0.95;;
27618;SDS011;15039;50.830;4.730;2022-08-19T15:01:00;2.53;;;0.70;;
27618;SDS011;15039;50.830;4.730;2022-08-19T15:03:26;1.77;;;1.08;;